createdAt,value
2018-09-22T00:01:43.884Z,100645.29
2018-09-22T00:04:11.726Z,100647.59
2018-09-22T00:06:39.462Z,100643.97
2018-09-22T00:09:09.092Z,100645.47
2018-09-22T00:11:36.972Z,100644.48
2018-09-22T00:14:04.852Z,100642.67
2018-09-22T00:16:32.685Z,100646.94
2018-09-22T00:19:00.695Z,100647.44
2018-09-22T00:21:28.496Z,100657.13
2018-09-22T00:23:56.380Z,100663.53
2018-09-22T00:26:24.200Z,100665.68
2018-09-22T00:28:55.994Z,100675.05
2018-09-22T00:31:23.943Z,100671.11
2018-09-22T00:33:51.676Z,100676.05
2018-09-22T00:36:19.528Z,100663.05
2018-09-22T00:38:47.358Z,100665.36
2018-09-22T00:41:15.282Z,100655.00
2018-09-22T00:43:43.054Z,100658.30
2018-09-22T00:46:10.886Z,100659.79
2018-09-22T00:48:38.638Z,100658.13
2018-09-22T00:51:06.479Z,100666.36
2018-09-22T00:53:34.522Z,100661.25
2018-09-22T00:56:02.282Z,100669.64
2018-09-22T00:58:30.100Z,100676.72
2018-09-22T01:00:57.963Z,100689.04
2018-09-22T01:03:25.722Z,100699.22
2018-09-22T01:05:53.606Z,100698.05
2018-09-22T01:08:21.413Z,100704.30
2018-09-22T01:10:49.182Z,100705.95
2018-09-22T01:13:16.976Z,100708.89
2018-09-22T01:15:50.905Z,100715.63
2018-09-22T01:18:18.838Z,100715.63
2018-09-22T01:20:46.565Z,100722.18
2018-09-22T01:23:14.254Z,100714.61
2018-09-22T01:25:41.956Z,100713.46
2018-09-22T01:28:09.807Z,100712.83
2018-09-22T01:30:37.542Z,100715.94
2018-09-22T01:33:05.418Z,100714.73
2018-09-22T01:35:33.337Z,100708.36
2018-09-22T01:38:01.229Z,100702.91
2018-09-22T01:40:28.956Z,100700.34
2018-09-22T01:42:56.806Z,100700.12
2018-09-22T01:45:24.708Z,100699.35
2018-09-22T01:47:52.474Z,100698.20
2018-09-22T01:50:20.286Z,100694.05
2018-09-22T01:52:48.044Z,100696.02
2018-09-22T01:55:15.816Z,100703.92
2018-09-22T01:57:43.543Z,100694.39
2018-09-22T02:00:14.979Z,100694.27
2018-09-22T02:02:42.795Z,100687.98
2018-09-22T02:05:10.675Z,100688.13
2018-09-22T02:07:38.430Z,100691.73
2018-09-22T02:10:06.379Z,100694.37
2018-09-22T02:12:34.163Z,100694.69
2018-09-22T02:15:01.972Z,100683.86
2018-09-22T02:17:29.754Z,100687.16
2018-09-22T02:19:57.570Z,100698.14
2018-09-22T02:22:25.570Z,100695.52
2018-09-22T02:24:53.513Z,100693.52
2018-09-22T02:27:21.305Z,100681.53
2018-09-22T02:29:49.083Z,100687.63
2018-09-22T02:32:17.027Z,100695.52
2018-09-22T02:34:44.885Z,100683.21
2018-09-22T02:37:12.632Z,100687.64
2018-09-22T02:39:40.522Z,100692.73
2018-09-22T02:42:08.506Z,100687.14
2018-09-22T02:44:36.243Z,100687.16
2018-09-22T02:47:04.111Z,100697.17
2018-09-22T02:49:31.952Z,100698.48
2018-09-22T02:51:59.705Z,100704.23
2018-09-22T02:54:27.583Z,100699.98
2018-09-22T02:56:55.312Z,100700.46
2018-09-22T02:59:23.107Z,100705.87
2018-09-22T03:01:51.027Z,100676.50
2018-09-22T03:07:25.779Z,100684.70
2018-09-22T03:09:53.577Z,100692.25
2018-09-22T03:12:21.335Z,100706.08
2018-09-22T03:14:49.164Z,100699.97
2018-09-22T03:17:17.054Z,100718.02
2018-09-22T03:19:44.910Z,100715.74
2018-09-22T03:22:12.665Z,100705.22
2018-09-22T03:24:40.656Z,100704.89
2018-09-22T03:27:08.497Z,100712.94
2018-09-22T03:29:36.223Z,100718.00
2018-09-22T03:32:04.015Z,100736.23
2018-09-22T03:34:31.850Z,100735.91
2018-09-22T03:36:59.582Z,100748.86
2018-09-22T03:39:27.275Z,100755.23
2018-09-22T03:41:55.103Z,100760.47
2018-09-22T03:44:22.780Z,100772.45
2018-09-22T03:46:51.097Z,100758.86
2018-09-22T03:49:18.872Z,100738.31
2018-09-22T03:51:46.628Z,100734.84
2018-09-22T03:54:14.486Z,100721.23
2018-09-22T03:56:42.295Z,100715.48
2018-09-22T03:59:10.478Z,100708.08
2018-09-22T04:01:38.388Z,100707.28
2018-09-22T04:04:06.119Z,100709.89
2018-09-22T04:06:34.003Z,100708.43
2018-09-22T04:09:01.817Z,100704.35
2018-09-22T04:11:29.738Z,100701.41
2018-09-22T04:13:57.558Z,100696.16
2018-09-22T04:16:25.239Z,100689.94
2018-09-22T04:18:53.196Z,100683.41
2018-09-22T04:21:20.911Z,100684.53
2018-09-22T04:23:48.643Z,100692.09
2018-09-22T04:26:16.394Z,100696.06
2018-09-22T04:28:44.139Z,100685.54
2018-09-22T04:31:11.872Z,100698.20
2018-09-22T04:33:43.608Z,100705.59
2018-09-22T04:36:11.349Z,100697.72
2018-09-22T04:38:39.202Z,100702.80
2018-09-22T04:41:06.982Z,100700.17
2018-09-22T04:43:34.889Z,100701.14
2018-09-22T04:46:02.783Z,100704.93
2018-09-22T04:48:30.521Z,100703.30
2018-09-22T04:50:58.435Z,100702.63
2018-09-22T04:53:26.456Z,100716.22
2018-09-22T04:55:54.317Z,100713.09
2018-09-22T04:58:22.111Z,100716.88
2018-09-22T05:00:49.944Z,100713.75
2018-09-22T05:03:17.769Z,100715.94
2018-09-22T05:05:45.641Z,100711.52
2018-09-22T05:08:13.501Z,100708.04
2018-09-22T05:10:41.739Z,100708.36
2018-09-22T05:13:09.634Z,100713.75
2018-09-22T05:15:37.490Z,100713.09
2018-09-22T05:18:05.534Z,100706.52
2018-09-22T05:20:33.283Z,100715.53
2018-09-22T05:23:01.326Z,100713.38
2018-09-22T05:25:29.439Z,100724.20
2018-09-22T05:27:57.278Z,100730.27
2018-09-22T05:30:25.217Z,100732.24
2018-09-22T05:32:53.155Z,100735.05
2018-09-22T05:35:26.332Z,100733.09
2018-09-22T05:37:54.500Z,100727.34
2018-09-22T05:40:22.263Z,100739.30
2018-09-22T05:42:50.137Z,100748.66
2018-09-22T05:45:17.831Z,100770.48
2018-09-22T05:47:45.515Z,100778.98
2018-09-22T05:50:13.241Z,100767.03
2018-09-22T05:52:41.182Z,100743.26
2018-09-22T05:55:08.870Z,100746.19
2018-09-22T05:57:36.550Z,100754.40
2018-09-22T06:00:04.793Z,100756.41
2018-09-22T06:02:32.458Z,100758.23
2018-09-22T06:05:00.163Z,100765.47
2018-09-22T06:07:31.718Z,100766.45
2018-09-22T06:09:59.418Z,100769.73
2018-09-22T06:12:27.083Z,100759.55
2018-09-22T06:14:54.759Z,100753.69
2018-09-22T06:17:22.448Z,100758.62
2018-09-22T06:19:50.107Z,100762.20
2018-09-22T06:22:17.847Z,100776.52
2018-09-22T06:24:45.534Z,100776.85
2018-09-22T06:27:13.229Z,100775.73
2018-09-22T06:29:40.935Z,100775.44
2018-09-22T06:32:08.643Z,100790.71
2018-09-22T06:34:36.427Z,100805.69
2018-09-22T06:37:04.144Z,100826.38
2018-09-22T06:39:31.869Z,100819.66
2018-09-22T06:41:59.626Z,100804.70
2018-09-22T06:44:27.362Z,100799.61
2018-09-22T06:46:55.195Z,100786.78
2018-09-22T06:49:22.883Z,100786.79
2018-09-22T06:51:50.687Z,100788.77
2018-09-22T06:54:18.464Z,100794.98
2018-09-22T06:56:46.142Z,100790.57
2018-09-22T06:59:13.927Z,100780.35
2018-09-22T07:01:41.673Z,100792.02
2018-09-22T07:04:09.542Z,100804.35
2018-09-22T07:06:37.201Z,100807.98
2018-09-22T07:09:10.503Z,100815.03
2018-09-22T07:11:38.195Z,100809.77
2018-09-22T07:14:06.003Z,100800.73
2018-09-22T07:16:33.706Z,100801.23
2018-09-22T07:19:01.511Z,100795.97
2018-09-22T07:21:34.945Z,100791.20
2018-09-22T07:24:02.865Z,100793.14
2018-09-22T07:26:30.547Z,100801.04
2018-09-22T07:28:58.211Z,100797.23
2018-09-22T07:31:27.279Z,100790.48
2018-09-22T07:33:55.486Z,100782.58
2018-09-22T07:36:23.176Z,100795.07
2018-09-22T07:38:50.900Z,100795.89
2018-09-22T07:41:18.930Z,100800.30
2018-09-22T07:43:46.627Z,100798.12
2018-09-22T07:46:14.314Z,100795.45
2018-09-22T07:48:42.118Z,100794.08
2018-09-22T07:51:09.867Z,100794.53
2018-09-22T07:53:38.124Z,100789.00
2018-09-22T07:56:05.831Z,100797.16
2018-09-22T07:58:33.538Z,100796.75
2018-09-22T08:01:01.471Z,100793.88
2018-09-22T08:03:29.497Z,100799.69
2018-09-22T08:05:57.278Z,100792.59
2018-09-22T08:08:25.768Z,100798.08
2018-09-22T08:10:53.457Z,100805.88
2018-09-22T08:13:21.192Z,100805.05
2018-09-22T08:15:48.915Z,100804.60
2018-09-22T08:18:16.792Z,100797.95
2018-09-22T08:20:44.483Z,100791.08
2018-09-22T08:23:12.166Z,100785.61
2018-09-22T08:25:39.889Z,100780.48
2018-09-22T08:28:07.562Z,100792.09
2018-09-22T08:30:35.279Z,100791.85
2018-09-22T08:33:02.992Z,100783.22
2018-09-22T08:35:30.685Z,100786.58
2018-09-22T08:37:58.370Z,100781.62
2018-09-22T08:40:26.052Z,100784.52
2018-09-22T08:42:53.735Z,100790.94
2018-09-22T08:45:21.410Z,100789.73
2018-09-22T08:47:49.099Z,100793.59
2018-09-22T08:50:16.977Z,100798.14
2018-09-22T08:52:47.975Z,100800.83
2018-09-22T08:55:15.671Z,100793.62
2018-09-22T08:57:43.394Z,100794.07
2018-09-22T09:00:11.078Z,100796.94
2018-09-22T09:02:38.779Z,100800.94
2018-09-22T09:05:06.556Z,100798.33
2018-09-22T09:07:34.251Z,100802.30
2018-09-22T09:10:02.203Z,100805.92
2018-09-22T09:12:29.910Z,100814.70
2018-09-22T09:14:57.611Z,100811.41
2018-09-22T09:17:25.384Z,100817.06
2018-09-22T09:19:53.068Z,100809.91
2018-09-22T09:22:20.898Z,100809.47
2018-09-22T09:24:48.884Z,100804.59
2018-09-22T09:27:16.595Z,100798.33
2018-09-22T09:29:44.278Z,100793.33
2018-09-22T09:32:14.431Z,100781.32
2018-09-22T09:34:42.270Z,100777.78
2018-09-22T09:37:09.914Z,100779.47
2018-09-22T09:39:37.817Z,100783.07
2018-09-22T09:42:06.305Z,100775.14
2018-09-22T09:44:34.020Z,100773.25
2018-09-22T09:47:01.798Z,100776.60
2018-09-22T09:49:29.524Z,100775.50
2018-09-22T09:51:57.272Z,100766.55
2018-09-22T09:54:25.017Z,100765.65
2018-09-22T09:56:52.743Z,100764.77
2018-09-22T09:59:21.395Z,100760.30
2018-09-22T10:01:49.111Z,100750.45
2018-09-22T10:04:16.860Z,100734.81
2018-09-22T10:06:44.582Z,100736.93
2018-09-22T10:09:12.279Z,100737.70
2018-09-22T10:11:44.120Z,100731.50
2018-09-22T10:14:11.739Z,100720.94
2018-09-22T10:16:39.427Z,100716.05
2018-09-22T10:19:07.169Z,100709.33
2018-09-22T10:21:34.843Z,100709.20
2018-09-22T10:24:02.529Z,100702.89
2018-09-22T10:26:30.344Z,100708.56
2018-09-22T10:28:58.120Z,100701.71
2018-09-22T10:31:25.754Z,100705.14
2018-09-22T10:33:53.630Z,100697.77
2018-09-22T10:36:21.374Z,100693.21
2018-09-22T10:38:49.042Z,100699.50
2018-09-22T10:41:16.764Z,100691.34
2018-09-22T10:43:44.525Z,100697.99
2018-09-22T10:46:12.241Z,100692.58
2018-09-22T10:48:40.056Z,100694.84
2018-09-22T10:51:07.794Z,100692.70
2018-09-22T10:53:35.538Z,100690.16
2018-09-22T10:56:03.500Z,100693.75
2018-09-22T10:58:31.179Z,100687.70
2018-09-22T11:00:58.897Z,100684.87
2018-09-22T11:03:26.917Z,100678.98
2018-09-22T11:05:54.586Z,100685.24
2018-09-22T11:08:22.315Z,100680.19
2018-09-22T11:10:50.046Z,100684.08
2018-09-22T11:13:17.795Z,100684.22
2018-09-22T11:15:45.555Z,100690.22
2018-09-22T11:18:13.279Z,100675.62
2018-09-22T11:20:41.071Z,100670.02
2018-09-22T11:23:08.782Z,100656.05
2018-09-22T11:25:36.498Z,100649.69
2018-09-22T11:28:04.258Z,100641.66
2018-09-22T11:30:32.023Z,100646.34
2018-09-22T11:32:59.707Z,100641.64
2018-09-22T11:35:27.396Z,100634.56
2018-09-22T11:37:55.107Z,100627.47
2018-09-22T11:40:22.788Z,100633.52
2018-09-22T11:45:34.485Z,100625.62
2018-09-22T11:48:02.244Z,100615.75
2018-09-22T11:50:30.056Z,100607.34
2018-09-22T11:52:57.832Z,100603.44
2018-09-22T11:55:25.535Z,100596.37
2018-09-22T11:57:53.255Z,100594.47
2018-09-22T12:00:21.109Z,100595.08
2018-09-22T12:02:48.827Z,100597.26
2018-09-22T12:05:16.552Z,100596.73
2018-09-22T12:07:44.478Z,100599.37
2018-09-22T12:10:12.232Z,100594.57
2018-09-22T12:12:40.115Z,100596.72
2018-09-22T12:15:07.924Z,100600.48
2018-09-22T12:17:36.824Z,100608.00
2018-09-22T12:20:04.663Z,100590.19
2018-09-22T12:22:32.542Z,100597.19
2018-09-22T12:25:00.336Z,100593.02
2018-09-22T12:27:28.134Z,100593.05
2018-09-22T12:29:55.983Z,100588.35
2018-09-22T12:32:23.795Z,100589.27
2018-09-22T12:34:51.610Z,100595.83
2018-09-22T12:37:19.367Z,100599.80
2018-09-22T12:39:47.167Z,100605.59
2018-09-22T12:42:14.919Z,100599.66
2018-09-22T12:44:42.812Z,100586.08
2018-09-22T12:47:10.538Z,100585.19
2018-09-22T12:49:38.252Z,100583.17
2018-09-22T12:52:05.967Z,100575.45
2018-09-22T12:54:33.856Z,100573.28
2018-09-22T12:57:01.689Z,100564.80
2018-09-22T12:59:29.439Z,100566.77
2018-09-22T13:01:57.553Z,100568.44
2018-09-22T13:04:25.419Z,100567.05
2018-09-22T13:06:53.179Z,100556.19
2018-09-22T13:09:20.927Z,100543.70
2018-09-22T13:11:48.700Z,100536.19
2018-09-22T13:14:16.406Z,100526.19
2018-09-22T13:16:44.236Z,100524.79
2018-09-22T13:19:11.955Z,100507.80
2018-09-22T13:21:39.678Z,100507.91
2018-09-22T13:24:07.563Z,100507.05
2018-09-22T13:26:35.384Z,100516.05
2018-09-22T13:29:03.136Z,100523.52
2018-09-22T13:31:34.231Z,100519.75
2018-09-22T13:34:02.224Z,100528.10
2018-09-22T13:36:30.005Z,100526.45
2018-09-22T13:38:57.770Z,100525.31
2018-09-22T13:41:25.515Z,100516.21
2018-09-22T13:43:53.204Z,100515.73
2018-09-22T13:46:21.149Z,100520.05
2018-09-22T13:48:48.856Z,100516.45
2018-09-22T13:51:16.611Z,100511.84
2018-09-22T13:53:44.327Z,100514.84
2018-09-22T13:56:12.195Z,100509.70
2018-09-22T13:58:39.871Z,100511.77
2018-09-22T14:01:07.694Z,100499.38
2018-09-22T14:03:35.685Z,100493.28
2018-09-22T14:06:03.591Z,100495.34
2018-09-22T14:08:31.448Z,100503.71
2018-09-22T14:10:59.357Z,100498.82
2018-09-22T14:13:27.120Z,100488.16
2018-09-22T14:15:54.863Z,100487.78
2018-09-22T14:18:22.620Z,100481.77
2018-09-22T14:20:50.892Z,100474.08
2018-09-22T14:23:18.591Z,100477.33
2018-09-22T14:25:46.775Z,100474.30
2018-09-22T14:28:14.591Z,100465.25
2018-09-22T14:30:42.358Z,100468.88
2018-09-22T14:33:10.342Z,100463.55
2018-09-22T14:35:38.088Z,100461.33
2018-09-22T14:38:05.942Z,100463.22
2018-09-22T14:40:33.683Z,100462.41
2018-09-22T14:43:05.306Z,100454.31
2018-09-22T14:45:33.019Z,100449.21
2018-09-22T14:48:00.804Z,100438.69
2018-09-22T14:50:28.601Z,100438.55
2018-09-22T14:52:56.484Z,100445.08
2018-09-22T14:55:24.470Z,100437.55
2018-09-22T14:57:52.275Z,100432.51
2018-09-22T15:00:20.187Z,100444.92
2018-09-22T15:02:47.994Z,100447.30
2018-09-22T15:05:15.860Z,100445.48
2018-09-22T15:07:43.599Z,100440.61
2018-09-22T15:10:11.810Z,100442.29
2018-09-22T15:12:39.556Z,100436.30
2018-09-22T15:15:07.382Z,100422.76
2018-09-22T15:17:35.072Z,100407.25
2018-09-22T15:20:02.903Z,100404.72
2018-09-22T15:22:30.672Z,100405.77
2018-09-22T15:24:58.485Z,100391.59
2018-09-22T15:27:26.212Z,100406.35
2018-09-22T15:29:53.986Z,100419.11
2018-09-22T15:32:21.692Z,100423.11
2018-09-22T15:34:49.452Z,100416.02
2018-09-22T15:37:17.160Z,100407.63
2018-09-22T15:39:44.876Z,100402.63
2018-09-22T15:42:13.047Z,100405.89
2018-09-22T15:44:40.794Z,100398.28
2018-09-22T15:47:08.598Z,100394.91
2018-09-22T15:49:36.287Z,100392.89
2018-09-22T15:52:04.249Z,100392.07
2018-09-22T15:54:32.127Z,100387.50
2018-09-22T15:56:59.987Z,100388.41
2018-09-22T15:59:27.703Z,100392.73
2018-09-22T16:01:55.471Z,100378.08
2018-09-22T16:04:23.238Z,100373.73
2018-09-22T16:06:51.120Z,100369.58
2018-09-22T16:09:18.866Z,100365.89
2018-09-22T16:11:46.648Z,100359.46
2018-09-22T16:14:14.365Z,100366.06
2018-09-22T16:16:42.243Z,100367.39
2018-09-22T16:19:09.949Z,100362.64
2018-09-22T16:21:37.966Z,100361.90
2018-09-22T16:24:06.107Z,100359.17
2018-09-22T16:26:33.939Z,100351.69
2018-09-22T16:29:01.639Z,100350.52
2018-09-22T16:31:35.258Z,100354.12
2018-09-22T16:34:03.103Z,100353.97
2018-09-22T16:36:30.932Z,100351.67
2018-09-22T16:38:58.856Z,100354.33
2018-09-22T16:41:26.643Z,100355.87
2018-09-22T16:43:54.410Z,100363.09
2018-09-22T16:46:22.370Z,100359.57
2018-09-22T16:48:50.181Z,100364.00
2018-09-22T16:51:17.996Z,100373.83
2018-09-22T16:53:45.795Z,100349.53
2018-09-22T16:56:13.652Z,100344.05
2018-09-22T16:58:41.523Z,100355.63
2018-09-22T17:01:09.519Z,100351.54
2018-09-22T17:03:37.371Z,100362.16
2018-09-22T17:06:05.293Z,100366.58
2018-09-22T17:08:33.067Z,100366.77
2018-09-22T17:11:00.792Z,100368.61
2018-09-22T17:13:28.666Z,100371.48
2018-09-22T17:15:56.424Z,100369.67
2018-09-22T17:18:24.116Z,100380.88
2018-09-22T17:20:52.114Z,100384.98
2018-09-22T17:23:19.855Z,100375.23
2018-09-22T17:25:47.640Z,100375.66
2018-09-22T17:28:15.408Z,100366.11
2018-09-22T17:30:43.243Z,100366.30
2018-09-22T17:33:11.201Z,100368.22
2018-09-22T17:35:38.930Z,100375.78
2018-09-22T17:38:06.789Z,100380.58
2018-09-22T17:40:39.322Z,100377.94
2018-09-22T17:43:07.237Z,100379.35
2018-09-22T17:45:35.075Z,100379.78
2018-09-22T17:48:02.838Z,100376.41
2018-09-22T17:50:31.053Z,100374.70
2018-09-22T17:52:58.976Z,100391.00
2018-09-22T17:55:27.065Z,100400.45
2018-09-22T17:57:54.883Z,100392.23
2018-09-22T18:00:22.854Z,100378.78
2018-09-22T18:02:50.686Z,100377.22
2018-09-22T18:05:18.930Z,100374.27
2018-09-22T18:07:48.780Z,100383.66
2018-09-22T18:10:16.636Z,100383.84
2018-09-22T18:12:44.638Z,100379.69
2018-09-22T18:15:12.375Z,100387.73
2018-09-22T18:17:40.266Z,100390.08
2018-09-22T18:20:08.280Z,100386.91
2018-09-22T18:22:36.075Z,100381.92
2018-09-22T18:25:03.991Z,100379.69
2018-09-22T18:27:31.906Z,100393.83
2018-09-22T18:29:59.831Z,100389.86
2018-09-22T18:32:27.622Z,100392.12
2018-09-22T18:34:55.393Z,100398.52
2018-09-22T18:37:23.313Z,100411.54
2018-09-22T18:39:51.261Z,100419.48
2018-09-22T18:42:19.015Z,100414.39
2018-09-22T18:44:50.036Z,100399.53
2018-09-22T18:47:17.987Z,100385.66
2018-09-22T18:49:45.718Z,100396.67
2018-09-22T18:52:13.962Z,100404.31
2018-09-22T18:54:41.827Z,100400.55
2018-09-22T18:57:17.888Z,100409.68
2018-09-22T18:59:45.654Z,100409.66
2018-09-22T19:02:14.182Z,100406.72
2018-09-22T19:04:41.921Z,100410.89
2018-09-22T19:07:09.695Z,100408.53
2018-09-22T19:09:37.382Z,100416.25
2018-09-22T19:12:05.353Z,100404.64
2018-09-22T19:14:53.611Z,100411.46
2018-09-22T19:17:26.000Z,100399.03
2018-09-22T19:20:00.295Z,100401.42
2018-09-22T19:22:31.220Z,100389.59
2018-09-22T19:25:05.790Z,100389.19
2018-09-22T19:27:43.554Z,100384.91
2018-09-22T19:30:31.311Z,100381.45
2018-09-22T19:33:05.168Z,100362.86
2018-09-22T19:35:43.280Z,100379.55
2018-09-22T19:38:16.436Z,100382.20
2018-09-22T19:40:47.640Z,100380.95
2018-09-22T19:43:20.002Z,100383.19
2018-09-22T19:45:49.736Z,100383.27
2018-09-22T19:48:24.876Z,100390.89
2018-09-22T19:51:28.287Z,100392.52
2018-09-22T19:53:57.394Z,100397.81
2018-09-22T19:56:25.143Z,100425.55
2018-09-22T19:58:52.884Z,100421.08
2018-09-22T20:01:20.717Z,100415.59
2018-09-22T20:03:48.439Z,100414.97
2018-09-22T20:06:16.179Z,100411.95
2018-09-22T20:08:43.948Z,100410.94
2018-09-22T20:11:11.711Z,100414.54
2018-09-22T20:13:39.453Z,100421.62
2018-09-22T20:16:07.271Z,100432.88
2018-09-22T20:18:35.089Z,100417.63
2018-09-22T20:21:02.819Z,100437.01
2018-09-22T20:23:30.578Z,100445.25
2018-09-22T20:25:58.353Z,100452.45
2018-09-22T20:28:26.095Z,100458.56
2018-09-22T20:30:54.184Z,100472.96
2018-09-22T20:33:21.924Z,100474.48
2018-09-22T20:35:49.655Z,100479.45
2018-09-22T20:38:17.412Z,100481.66
2018-09-22T20:40:45.119Z,100481.59
2018-09-22T20:43:12.799Z,100480.89
2018-09-22T20:45:40.855Z,100485.66
2018-09-22T20:48:08.543Z,100481.84
2018-09-22T20:50:36.329Z,100484.49
2018-09-22T20:53:03.997Z,100475.55
2018-09-22T20:55:31.728Z,100450.25
2018-09-22T20:57:59.626Z,100439.98
2018-09-22T21:00:27.363Z,100437.66
2018-09-22T21:02:55.082Z,100440.59
2018-09-22T21:05:22.890Z,100431.86
2018-09-22T21:07:50.603Z,100425.00
2018-09-22T21:10:18.432Z,100420.59
2018-09-22T21:12:46.470Z,100417.48
2018-09-22T21:15:14.160Z,100423.58
2018-09-22T21:17:41.875Z,100425.06
2018-09-22T21:20:09.966Z,100409.86
2018-09-22T21:22:37.634Z,100399.80
2018-09-22T21:25:05.466Z,100396.72
2018-09-22T21:27:33.299Z,100390.56
2018-09-22T21:30:01.332Z,100392.70
2018-09-22T21:32:29.128Z,100387.27
2018-09-22T21:34:56.803Z,100386.02
2018-09-22T21:37:24.674Z,100380.30
2018-09-22T21:39:52.411Z,100374.71
2018-09-22T21:42:20.104Z,100367.20
2018-09-22T21:44:47.876Z,100359.17
2018-09-22T21:47:15.623Z,100358.77
2018-09-22T21:49:43.307Z,100359.22
2018-09-22T21:52:11.142Z,100350.65
2018-09-22T21:54:38.878Z,100341.34
2018-09-22T21:57:06.726Z,100338.45
2018-09-22T21:59:34.498Z,100334.19
2018-09-22T22:02:02.329Z,100339.27
2018-09-22T22:04:30.120Z,100340.48
2018-09-22T22:06:57.840Z,100350.44
2018-09-22T22:09:25.517Z,100349.79
2018-09-22T22:11:53.314Z,100345.83
2018-09-22T22:14:21.025Z,100358.84
2018-09-22T22:16:48.801Z,100355.59
2018-09-22T22:19:16.550Z,100350.13
2018-09-22T22:21:44.312Z,100348.84
2018-09-22T22:24:12.019Z,100340.88
2018-09-22T22:26:39.742Z,100334.89
2018-09-22T22:29:07.464Z,100342.06
2018-09-22T22:31:35.159Z,100338.55
2018-09-22T22:34:02.862Z,100347.48
2018-09-22T22:36:30.826Z,100340.61
2018-09-22T22:38:58.499Z,100343.25
2018-09-22T22:41:26.201Z,100343.81
2018-09-22T22:43:54.188Z,100345.03
2018-09-22T22:46:21.960Z,100347.03
2018-09-22T22:48:49.646Z,100340.05
2018-09-22T22:51:17.357Z,100334.88
2018-09-22T22:53:45.075Z,100323.62
2018-09-22T22:56:12.928Z,100312.78
2018-09-22T22:58:40.647Z,100310.61
2018-09-22T23:01:08.694Z,100308.68
2018-09-22T23:03:36.427Z,100315.15
2018-09-22T23:06:04.172Z,100309.49
2018-09-22T23:08:31.903Z,100308.48
2018-09-22T23:10:59.630Z,100304.83
2018-09-22T23:13:27.403Z,100303.20
2018-09-22T23:15:55.132Z,100293.55
2018-09-22T23:18:22.843Z,100290.56
2018-09-22T23:20:50.609Z,100291.95
2018-09-22T23:23:18.301Z,100295.98
2018-09-22T23:25:46.332Z,100289.13
2018-09-22T23:28:14.112Z,100288.52
2018-09-22T23:30:41.872Z,100273.09
2018-09-22T23:33:09.704Z,100271.47
2018-09-22T23:35:37.419Z,100271.70
2018-09-22T23:38:05.402Z,100273.84
2018-09-22T23:40:33.165Z,100272.14
2018-09-22T23:43:00.859Z,100272.21
2018-09-22T23:45:28.565Z,100277.59
2018-09-22T23:47:56.516Z,100267.67
2018-09-22T23:50:24.216Z,100258.40
2018-09-22T23:52:51.916Z,100262.42
2018-09-22T23:55:19.622Z,100254.27
2018-09-22T23:57:47.328Z,100258.86
